createdAt,value
2023-12-08T00:04:50.300Z,92.36
2023-12-08T00:10:22.129Z,91.75
2023-12-08T00:15:53.438Z,92.44
2023-12-08T00:21:25.024Z,90.25
2023-12-08T00:26:57.741Z,91.8
2023-12-08T00:32:28.769Z,90.06
2023-12-08T00:38:00.237Z,91.56
2023-12-08T00:43:32.076Z,92.34
2023-12-08T00:49:04.095Z,89.29
2023-12-08T00:54:35.307Z,91.42
2023-12-08T01:00:07.683Z,90.66
2023-12-08T01:05:43.319Z,89.63
2023-12-08T01:11:15.229Z,89.85
2023-12-08T01:16:47.201Z,89.7
2023-12-08T01:22:18.392Z,88.93
2023-12-08T01:27:50.160Z,89.62
2023-12-08T01:33:22.273Z,91.14
2023-12-08T01:38:53.751Z,90.79
2023-12-08T01:44:26.131Z,89.02
2023-12-08T01:49:57.210Z,87.83
2023-12-08T01:55:28.782Z,90.01
2023-12-08T02:01:01.090Z,87.49
2023-12-08T02:06:36.622Z,87.92
2023-12-08T02:12:08.414Z,87.73
2023-12-08T02:17:40.784Z,89.29
2023-12-08T02:23:11.884Z,91.39
2023-12-08T02:28:43.675Z,90.27
2023-12-08T02:34:15.550Z,88.66
2023-12-08T02:39:47.053Z,88.57
2023-12-08T02:45:18.820Z,88.94
2023-12-08T02:50:50.852Z,89.38
2023-12-08T02:56:22.404Z,89.25
2023-12-08T03:01:53.871Z,88.65
2023-12-08T03:07:29.907Z,88.96
2023-12-08T03:13:02.216Z,88.64
2023-12-08T03:18:33.797Z,89.77
2023-12-08T03:24:05.282Z,89.15
2023-12-08T03:29:37.324Z,90.55
2023-12-08T03:35:08.594Z,90.58
2023-12-08T03:40:40.354Z,91.5
2023-12-08T03:46:12.038Z,90.38
2023-12-08T03:51:43.811Z,90.6
2023-12-08T03:57:15.686Z,90.86
2023-12-08T04:02:47.533Z,91.35
2023-12-08T04:08:23.390Z,90.8
2023-12-08T04:13:55.066Z,90.85
2023-12-08T04:19:27.144Z,91.38
2023-12-08T04:24:59.176Z,90.73
2023-12-08T04:30:30.190Z,90.71
2023-12-08T04:36:02.005Z,90.78
2023-12-08T04:41:33.735Z,90.72
2023-12-08T04:47:05.426Z,92.75
2023-12-08T04:52:37.097Z,96.94
2023-12-08T04:58:08.920Z,100.0
2023-12-08T05:03:40.841Z,100.0
2023-12-08T05:09:16.857Z,100.0
2023-12-08T05:14:48.965Z,100.0
2023-12-08T05:20:20.195Z,100.0
2023-12-08T05:25:51.793Z,100.0
2023-12-08T05:31:23.567Z,100.0
2023-12-08T05:36:55.247Z,100.0
2023-12-08T05:42:27.181Z,100.0
2023-12-08T05:47:58.997Z,100.0
2023-12-08T05:53:30.875Z,100.0
2023-12-08T05:59:02.168Z,100.0
2023-12-08T06:04:33.945Z,100.0
2023-12-08T06:10:10.087Z,100.0
2023-12-08T06:15:41.698Z,100.0
2023-12-08T06:21:13.861Z,100.0
2023-12-08T06:26:45.272Z,100.0
2023-12-08T06:32:16.890Z,100.0
2023-12-08T06:37:48.576Z,100.0
2023-12-08T06:43:21.321Z,100.0
2023-12-08T06:48:52.314Z,100.0
2023-12-08T06:54:24.080Z,100.0
2023-12-08T06:59:56.833Z,100.0
2023-12-08T07:05:27.400Z,100.0
2023-12-08T07:11:03.421Z,100.0
2023-12-08T07:16:35.891Z,100.0
2023-12-08T07:22:06.821Z,100.0
2023-12-08T07:27:38.405Z,100.0
2023-12-08T07:33:10.736Z,100.0
2023-12-08T07:38:42.388Z,100.0
2023-12-08T07:44:13.646Z,100.0
2023-12-08T07:49:45.757Z,100.0
2023-12-08T07:55:17.259Z,100.0
2023-12-08T08:00:49.151Z,100.0
2023-12-08T08:06:20.958Z,100.0
2023-12-08T08:11:58.865Z,100.0
2023-12-08T08:17:31.119Z,100.0
2023-12-08T08:23:02.146Z,100.0
2023-12-08T08:28:33.826Z,100.0
2023-12-08T08:34:05.755Z,100.0
2023-12-08T08:39:37.420Z,100.0
2023-12-08T08:45:09.135Z,100.0
2023-12-08T08:50:50.591Z,100.0
2023-12-08T08:56:12.491Z,100.0
2023-12-08T09:01:44.172Z,100.0
2023-12-08T09:07:16.461Z,100.0
2023-12-08T09:12:54.786Z,100.0
2023-12-08T09:18:26.119Z,100.0
2023-12-08T09:23:58.870Z,100.0
2023-12-08T09:29:29.382Z,100.0
2023-12-08T09:35:01.945Z,100.0
2023-12-08T09:40:33.319Z,100.0
2023-12-08T09:46:04.413Z,100.0
2023-12-08T09:51:36.138Z,100.0
2023-12-08T09:57:08.126Z,100.0
2023-12-08T10:02:39.784Z,100.0
2023-12-08T10:08:11.460Z,100.0
2023-12-08T10:13:48.403Z,100.0
2023-12-08T10:19:19.505Z,100.0
2023-12-08T10:24:51.069Z,100.0
2023-12-08T10:30:23.429Z,100.0
2023-12-08T10:35:54.595Z,100.0
2023-12-08T10:41:26.138Z,100.0
2023-12-08T10:46:57.889Z,100.0
2023-12-08T10:52:29.629Z,100.0
2023-12-08T10:58:01.421Z,100.0
2023-12-08T11:03:33.178Z,100.0
2023-12-08T11:09:04.842Z,100.0
2023-12-08T11:14:41.030Z,100.0
2023-12-08T11:20:12.691Z,100.0
2023-12-08T11:25:44.444Z,100.0
2023-12-08T11:31:16.015Z,100.0
2023-12-08T11:36:48.348Z,100.0
2023-12-08T11:42:19.671Z,100.0
2023-12-08T11:47:51.587Z,100.0
2023-12-08T11:53:23.108Z,100.0
2023-12-08T11:58:54.754Z,100.0
2023-12-08T12:04:26.463Z,100.0
2023-12-08T12:09:59.352Z,100.0
2023-12-08T12:15:34.250Z,100.0
2023-12-08T12:21:06.118Z,100.0
2023-12-08T12:26:37.935Z,100.0
2023-12-08T12:32:09.530Z,100.0
2023-12-08T12:37:41.197Z,100.0
2023-12-08T12:43:12.957Z,100.0
2023-12-08T12:48:44.834Z,100.0
2023-12-08T12:54:17.584Z,100.0
2023-12-08T12:59:48.150Z,100.0
2023-12-08T13:05:20.013Z,100.0
2023-12-08T13:10:51.852Z,100.0
2023-12-08T13:16:27.767Z,100.0
2023-12-08T13:21:59.558Z,100.0
2023-12-08T13:27:31.400Z,100.0
2023-12-08T13:33:07.537Z,100.0
2023-12-08T13:38:35.103Z,100.0
2023-12-08T13:44:06.379Z,100.0
2023-12-08T13:49:38.297Z,100.0
2023-12-08T13:55:10.325Z,100.0
2023-12-08T14:00:41.933Z,100.0
2023-12-08T14:06:14.041Z,100.0
2023-12-08T14:11:45.112Z,100.0
2023-12-08T14:17:21.341Z,100.0
2023-12-08T14:22:52.898Z,100.0
2023-12-08T14:28:24.600Z,100.0
2023-12-08T14:33:57.774Z,100.0
2023-12-08T14:39:30.038Z,100.0
2023-12-08T14:44:59.799Z,100.0
2023-12-08T14:50:31.535Z,100.0
2023-12-08T14:56:03.408Z,100.0
2023-12-08T15:01:34.975Z,100.0
2023-12-08T15:07:06.680Z,100.0
2023-12-08T15:12:38.453Z,100.0
2023-12-08T15:18:14.748Z,100.0
2023-12-08T15:23:46.361Z,100.0
2023-12-08T15:29:17.975Z,100.0
2023-12-08T15:34:49.919Z,100.0
2023-12-08T15:40:21.422Z,100.0
2023-12-08T15:45:53.205Z,100.0
2023-12-08T15:51:25.177Z,100.0
2023-12-08T15:56:56.926Z,100.0
2023-12-08T16:02:28.818Z,100.0
2023-12-08T16:08:00.222Z,100.0
2023-12-08T16:13:31.899Z,100.0
2023-12-08T16:19:08.283Z,100.0
2023-12-08T16:24:40.401Z,100.0
2023-12-08T16:30:11.782Z,100.0
2023-12-08T16:35:43.217Z,100.0
2023-12-08T16:41:14.833Z,100.0
2023-12-08T16:46:47.215Z,100.0
2023-12-08T16:52:18.342Z,100.0
2023-12-08T16:57:50.158Z,100.0
2023-12-08T17:03:22.064Z,100.0
2023-12-08T17:08:53.663Z,100.0
2023-12-08T17:14:25.346Z,100.0
2023-12-08T17:20:03.545Z,100.0
2023-12-08T17:25:35.125Z,100.0
2023-12-08T17:31:07.053Z,100.0
2023-12-08T17:36:38.520Z,100.0
2023-12-08T17:42:10.317Z,100.0
2023-12-08T17:47:42.202Z,100.0
2023-12-08T17:53:13.728Z,100.0
2023-12-08T17:58:45.414Z,100.0
2023-12-08T18:04:17.225Z,100.0
2023-12-08T18:09:48.967Z,100.0
2023-12-08T18:15:21.015Z,100.0
2023-12-08T18:20:59.764Z,100.0
2023-12-08T18:26:30.505Z,100.0
2023-12-08T18:32:02.322Z,100.0
2023-12-08T18:37:33.989Z,100.0
2023-12-08T18:43:06.095Z,100.0
2023-12-08T18:48:37.811Z,100.0
2023-12-08T18:54:09.282Z,100.0
2023-12-08T18:59:40.969Z,100.0
2023-12-08T19:05:12.736Z,100.0
2023-12-08T19:10:45.104Z,100.0
2023-12-08T19:16:16.823Z,100.0
2023-12-08T19:21:53.029Z,100.0
2023-12-08T19:27:24.989Z,100.0
2023-12-08T19:32:56.728Z,100.0
2023-12-08T19:38:28.250Z,100.0
2023-12-08T19:44:00.017Z,100.0
2023-12-08T19:49:31.937Z,100.0
2023-12-08T19:55:03.464Z,100.0
2023-12-08T20:00:35.303Z,100.0
2023-12-08T20:06:07.124Z,100.0
2023-12-08T20:11:38.667Z,100.0
2023-12-08T20:17:17.156Z,100.0
2023-12-08T20:22:46.465Z,100.0
2023-12-08T20:28:18.134Z,100.0
2023-12-08T20:33:50.353Z,100.0
2023-12-08T20:39:21.870Z,100.0
2023-12-08T20:44:53.477Z,100.0
2023-12-08T20:50:25.710Z,100.0
2023-12-08T20:55:57.258Z,100.0
2023-12-08T21:01:32.660Z,100.0
2023-12-08T21:07:00.865Z,100.0
2023-12-08T21:12:33.056Z,100.0
2023-12-08T21:18:04.049Z,100.0
2023-12-08T21:23:40.031Z,100.0
2023-12-08T21:29:11.677Z,100.0
2023-12-08T21:34:43.772Z,100.0
2023-12-08T21:40:15.425Z,100.0
2023-12-08T21:45:46.961Z,100.0
2023-12-08T21:51:18.716Z,100.0
2023-12-08T21:56:50.495Z,100.0
2023-12-08T22:02:22.127Z,100.0
2023-12-08T22:07:54.756Z,100.0
2023-12-08T22:13:25.644Z,100.0
2023-12-08T22:18:57.514Z,100.0
2023-12-08T22:24:58.384Z,100.0
2023-12-08T22:30:30.215Z,100.0
2023-12-08T22:36:02.016Z,100.0
2023-12-08T22:41:33.650Z,100.0
2023-12-08T22:47:05.398Z,100.0
2023-12-08T22:52:37.407Z,100.0
2023-12-08T22:58:09.101Z,100.0
2023-12-08T23:03:40.821Z,100.0
2023-12-08T23:09:12.197Z,100.0
2023-12-08T23:14:44.029Z,100.0
2023-12-08T23:20:15.759Z,100.0
2023-12-08T23:25:53.855Z,100.0
2023-12-08T23:31:25.646Z,100.0
2023-12-08T23:36:57.756Z,100.0
2023-12-08T23:42:29.750Z,100.0
2023-12-08T23:48:01.278Z,100.0
2023-12-08T23:53:32.491Z,100.0
2023-12-08T23:59:04.933Z,100.0
